createdAt,value
2023-01-06T00:01:41.915Z,100577.78
2023-01-06T00:04:09.823Z,100586.56
2023-01-06T00:06:39.179Z,100582.53
2023-01-06T00:09:07.601Z,100596.78
2023-01-06T00:11:35.570Z,100583.66
2023-01-06T00:14:03.874Z,100595.72
2023-01-06T00:16:31.941Z,100606.50
2023-01-06T00:19:01.537Z,100591.97
2023-01-06T00:21:30.261Z,100606.00
2023-01-06T00:23:59.615Z,100600.63
2023-01-06T00:26:27.614Z,100606.78
2023-01-06T00:28:56.404Z,100606.00
2023-01-06T00:31:24.672Z,100607.94
2023-01-06T00:33:52.959Z,100612.13
2023-01-06T00:36:21.818Z,100614.66
2023-01-06T00:38:50.921Z,100611.44
2023-01-06T00:41:38.301Z,100618.41
2023-01-06T00:44:06.665Z,100618.09
2023-01-06T00:46:35.210Z,100603.97
2023-01-06T00:49:05.796Z,100623.66
2023-01-06T00:51:35.119Z,100623.03
2023-01-06T00:54:03.190Z,100617.94
2023-01-06T00:56:32.755Z,100613.72
2023-01-06T00:59:00.668Z,100628.41
2023-01-06T01:01:28.774Z,100639.63
2023-01-06T01:03:56.748Z,100631.53
2023-01-06T01:06:24.742Z,100633.81
2023-01-06T01:08:54.863Z,100634.78
2023-01-06T01:11:36.848Z,100643.81
2023-01-06T01:14:06.177Z,100644.50
2023-01-06T01:16:34.099Z,100653.19
2023-01-06T01:19:02.124Z,100659.72
2023-01-06T01:21:30.053Z,100659.66
2023-01-06T01:23:58.254Z,100665.53
2023-01-06T01:26:26.372Z,100672.84
2023-01-06T01:28:54.297Z,100662.19
2023-01-06T01:31:23.663Z,100663.41
2023-01-06T01:33:51.765Z,100663.81
2023-01-06T01:36:20.434Z,100663.66
2023-01-06T01:38:48.393Z,100670.38
2023-01-06T01:41:18.735Z,100660.19
2023-01-06T01:43:48.351Z,100663.94
2023-01-06T01:46:21.048Z,100657.59
2023-01-06T01:48:50.817Z,100655.53
2023-01-06T01:51:22.668Z,100652.31
2023-01-06T01:53:55.020Z,100653.28
2023-01-06T01:56:27.088Z,100663.25
2023-01-06T01:58:58.183Z,100659.78
2023-01-06T02:01:26.373Z,100660.00
2023-01-06T02:03:55.925Z,100670.09
2023-01-06T02:06:26.822Z,100663.59
2023-01-06T02:09:02.122Z,100666.25
2023-01-06T02:11:33.846Z,100670.25
2023-01-06T02:14:10.608Z,100670.81
2023-01-06T02:16:51.739Z,100690.91
2023-01-06T02:19:48.332Z,100681.22
2023-01-06T02:22:32.592Z,100681.47
2023-01-06T02:25:17.803Z,100693.06
2023-01-06T02:28:08.298Z,100697.25
2023-01-06T02:31:22.711Z,100703.19
2023-01-06T02:33:56.551Z,100712.34
2023-01-06T02:36:35.018Z,100707.50
2023-01-06T02:39:16.301Z,100699.31
2023-01-06T02:41:48.231Z,100715.75
2023-01-06T02:44:25.935Z,100706.47
2023-01-06T02:47:17.219Z,100725.84
2023-01-06T02:49:53.727Z,100712.09
2023-01-06T02:52:32.481Z,100720.84
2023-01-06T02:55:06.482Z,100725.50
2023-01-06T02:57:40.547Z,100728.28
2023-01-06T03:00:14.402Z,100727.44
2023-01-06T03:02:49.607Z,100714.75
2023-01-06T03:05:18.705Z,100727.44
2023-01-06T03:07:47.879Z,100731.28
2023-01-06T03:10:19.921Z,100726.94
2023-01-06T03:12:53.052Z,100729.47
2023-01-06T03:15:21.602Z,100721.34
2023-01-06T03:17:51.198Z,100742.56
2023-01-06T03:20:20.071Z,100739.53
2023-01-06T03:22:48.001Z,100745.25
2023-01-06T03:25:16.530Z,100740.97
2023-01-06T03:27:44.470Z,100726.34
2023-01-06T03:30:14.074Z,100734.97
2023-01-06T03:32:50.013Z,100748.75
2023-01-06T03:35:35.566Z,100756.38
2023-01-06T03:38:14.551Z,100762.44
2023-01-06T03:40:49.165Z,100757.88
2023-01-06T03:43:25.257Z,100761.59
2023-01-06T03:45:58.839Z,100762.78
2023-01-06T03:48:39.480Z,100772.84
2023-01-06T03:51:19.859Z,100770.09
2023-01-06T03:53:56.855Z,100770.84
2023-01-06T03:56:29.803Z,100770.91
2023-01-06T03:59:00.867Z,100775.03
2023-01-06T04:01:29.781Z,100769.09
2023-01-06T04:03:58.100Z,100774.88
2023-01-06T04:06:27.412Z,100776.84
2023-01-06T04:08:55.375Z,100780.66
2023-01-06T04:11:40.795Z,100774.97
2023-01-06T04:14:08.716Z,100780.91
2023-01-06T04:16:36.755Z,100778.94
2023-01-06T04:19:05.240Z,100773.53
2023-01-06T04:21:34.544Z,100767.81
2023-01-06T04:24:02.569Z,100758.84
2023-01-06T04:26:30.590Z,100764.00
2023-01-06T04:28:59.019Z,100768.94
2023-01-06T04:31:27.020Z,100777.09
2023-01-06T04:33:55.091Z,100777.25
2023-01-06T04:36:23.183Z,100759.94
2023-01-06T04:38:52.526Z,100780.06
2023-01-06T04:41:20.509Z,100793.50
2023-01-06T04:43:48.461Z,100790.00
2023-01-06T04:46:16.463Z,100789.09
2023-01-06T04:48:44.615Z,100789.56
2023-01-06T04:51:12.758Z,100799.75
2023-01-06T04:53:42.514Z,100785.56
2023-01-06T04:56:13.284Z,100802.69
2023-01-06T04:58:41.519Z,100802.28
2023-01-06T05:01:12.187Z,100809.84
2023-01-06T05:03:41.197Z,100815.13
2023-01-06T05:06:11.673Z,100823.78
2023-01-06T05:08:41.047Z,100815.25
2023-01-06T05:11:12.183Z,100817.59
2023-01-06T05:13:40.378Z,100828.06
2023-01-06T05:16:09.401Z,100829.00
2023-01-06T05:18:37.755Z,100830.34
2023-01-06T05:21:06.027Z,100839.19
2023-01-06T05:23:34.015Z,100839.94
2023-01-06T05:26:01.927Z,100836.53
2023-01-06T05:28:31.755Z,100833.00
2023-01-06T05:31:03.212Z,100821.41
2023-01-06T05:33:31.916Z,100834.31
2023-01-06T05:36:00.447Z,100831.38
2023-01-06T05:38:28.401Z,100815.44
2023-01-06T05:40:57.498Z,100830.00
2023-01-06T05:43:26.233Z,100825.19
2023-01-06T05:45:56.263Z,100836.34
2023-01-06T05:48:26.531Z,100851.19
2023-01-06T05:51:01.266Z,100841.38
2023-01-06T05:53:32.406Z,100850.63
2023-01-06T05:56:01.820Z,100844.91
2023-01-06T05:58:29.767Z,100848.66
2023-01-06T06:00:59.071Z,100851.72
2023-01-06T06:03:27.027Z,100861.78
2023-01-06T06:05:55.040Z,100863.09
2023-01-06T06:08:22.989Z,100863.38
2023-01-06T06:10:50.895Z,100859.16
2023-01-06T06:13:18.804Z,100866.75
2023-01-06T06:15:46.734Z,100863.28
2023-01-06T06:18:16.088Z,100872.47
2023-01-06T06:20:44.044Z,100871.88
2023-01-06T06:23:11.959Z,100877.81
2023-01-06T06:25:39.888Z,100889.75
2023-01-06T06:28:07.813Z,100904.19
2023-01-06T06:30:35.730Z,100908.31
2023-01-06T06:33:03.927Z,100897.72
2023-01-06T06:35:33.214Z,100909.34
2023-01-06T06:38:01.127Z,100913.91
2023-01-06T06:40:29.038Z,100926.28
2023-01-06T06:42:57.831Z,100931.09
2023-01-06T06:45:25.769Z,100937.00
2023-01-06T06:47:55.376Z,100932.53
2023-01-06T06:50:23.342Z,100941.31
2023-01-06T06:52:52.647Z,100942.56
2023-01-06T06:55:20.541Z,100945.91
2023-01-06T06:57:48.463Z,100934.28
2023-01-06T07:00:17.231Z,100925.41
2023-01-06T07:02:48.463Z,100930.31
2023-01-06T07:05:16.542Z,100919.56
2023-01-06T07:07:44.487Z,100916.94
2023-01-06T07:10:17.294Z,100930.41
2023-01-06T07:12:45.243Z,100927.94
2023-01-06T07:15:13.310Z,100938.56
2023-01-06T07:17:42.330Z,100940.06
2023-01-06T07:20:11.611Z,100940.16
2023-01-06T07:22:40.147Z,100941.13
2023-01-06T07:25:09.568Z,100940.59
2023-01-06T07:27:38.941Z,100942.78
2023-01-06T07:30:07.968Z,100946.69
2023-01-06T07:32:35.922Z,100945.31
2023-01-06T07:35:03.902Z,100945.53
2023-01-06T07:37:31.859Z,100931.28
2023-01-06T07:39:59.783Z,100940.44
2023-01-06T07:42:27.722Z,100953.56
2023-01-06T07:44:57.032Z,100959.94
2023-01-06T07:47:24.955Z,100964.41
2023-01-06T07:49:52.882Z,100973.63
2023-01-06T07:52:20.803Z,100981.66
2023-01-06T07:54:49.033Z,100979.06
2023-01-06T07:57:18.094Z,100970.03
2023-01-06T07:59:46.201Z,100974.53
2023-01-06T08:02:15.596Z,100979.38
2023-01-06T08:04:43.517Z,100995.69
2023-01-06T08:07:11.469Z,100990.19
2023-01-06T08:09:39.416Z,101004.84
2023-01-06T08:12:08.155Z,101008.59
2023-01-06T08:14:36.172Z,101004.47
2023-01-06T08:17:04.141Z,101008.84
2023-01-06T08:19:33.481Z,101024.31
2023-01-06T08:22:01.803Z,101029.41
2023-01-06T08:24:31.828Z,101036.81
2023-01-06T08:27:00.613Z,101040.31
2023-01-06T08:29:29.174Z,101045.59
2023-01-06T08:32:09.882Z,101053.66
2023-01-06T08:34:40.234Z,101060.03
2023-01-06T08:37:08.301Z,101051.44
2023-01-06T08:39:36.285Z,101064.19
2023-01-06T08:42:04.303Z,101064.72
2023-01-06T08:44:32.388Z,101074.34
2023-01-06T08:47:00.381Z,101067.47
2023-01-06T08:49:28.299Z,101073.78
2023-01-06T08:51:57.640Z,101069.97
2023-01-06T08:54:25.608Z,101069.97
2023-01-06T08:56:53.514Z,101063.19
2023-01-06T08:59:21.437Z,101070.84
2023-01-06T09:01:49.474Z,101065.44
2023-01-06T09:04:17.561Z,101075.38
2023-01-06T09:06:47.372Z,101080.56
2023-01-06T09:09:16.777Z,101082.81
2023-01-06T09:11:45.769Z,101040.53
2023-01-06T09:14:14.733Z,101087.28
2023-01-06T09:16:43.048Z,101081.06
2023-01-06T09:19:11.426Z,101075.84
2023-01-06T09:21:42.874Z,101079.72
2023-01-06T09:24:13.972Z,101064.59
2023-01-06T09:26:43.361Z,101084.38
2023-01-06T09:29:11.323Z,101081.09
2023-01-06T09:31:39.280Z,101087.00
2023-01-06T09:34:07.189Z,101079.72
2023-01-06T09:36:35.105Z,101084.31
2023-01-06T09:39:03.072Z,101065.94
2023-01-06T09:41:53.379Z,101078.03
2023-01-06T09:44:26.610Z,101063.00
2023-01-06T09:46:55.683Z,101062.81
2023-01-06T09:49:29.117Z,101072.50
2023-01-06T09:52:00.972Z,101056.81
2023-01-06T09:54:34.655Z,101050.31
2023-01-06T09:57:07.732Z,101038.28
2023-01-06T09:59:43.272Z,101032.53
2023-01-06T10:02:18.596Z,101033.84
2023-01-06T10:04:46.572Z,101030.47
2023-01-06T10:07:21.062Z,101030.59
2023-01-06T10:10:01.802Z,101032.44
2023-01-06T10:12:53.137Z,101005.81
2023-01-06T10:15:30.735Z,101026.22
2023-01-06T10:18:16.668Z,101042.03
2023-01-06T10:20:56.110Z,101045.22
2023-01-06T10:23:43.766Z,101041.78
2023-01-06T10:26:14.548Z,101049.50
2023-01-06T10:28:45.299Z,101053.03
2023-01-06T10:31:16.666Z,101068.13
2023-01-06T10:33:49.742Z,101050.41
2023-01-06T10:36:19.398Z,101038.22
2023-01-06T10:38:50.525Z,101041.66
2023-01-06T10:41:26.374Z,101039.06
2023-01-06T10:43:55.842Z,101035.50
2023-01-06T10:46:24.243Z,101026.03
2023-01-06T10:48:52.681Z,101025.84
2023-01-06T10:51:35.937Z,101021.47
2023-01-06T10:54:08.872Z,101019.69
2023-01-06T10:56:37.873Z,101033.28
2023-01-06T10:59:09.849Z,101028.53
2023-01-06T11:01:50.293Z,101030.88
2023-01-06T11:04:19.611Z,101030.13
2023-01-06T11:06:51.752Z,101017.28
2023-01-06T11:09:33.711Z,101011.13
2023-01-06T11:12:05.769Z,101018.56
2023-01-06T11:14:36.214Z,101024.06
2023-01-06T11:17:08.366Z,101005.69
2023-01-06T11:19:38.917Z,101017.63
2023-01-06T11:22:26.256Z,101029.72
2023-01-06T11:24:55.666Z,101030.56
2023-01-06T11:27:23.617Z,101019.53
2023-01-06T11:29:52.955Z,101029.81
2023-01-06T11:32:23.971Z,101023.63
2023-01-06T11:34:56.117Z,101020.84
2023-01-06T11:37:32.581Z,101022.50
2023-01-06T11:40:10.227Z,101023.97
2023-01-06T11:45:34.204Z,101014.94
2023-01-06T11:48:02.793Z,101013.84
2023-01-06T11:50:31.085Z,101005.94
2023-01-06T11:53:03.670Z,101017.66
2023-01-06T11:55:31.820Z,101026.03
2023-01-06T11:58:05.378Z,101013.00
2023-01-06T12:00:45.615Z,101024.94
2023-01-06T12:03:22.157Z,101029.75
2023-01-06T12:05:56.177Z,101022.78
2023-01-06T12:08:27.669Z,101028.63
2023-01-06T12:11:00.645Z,101016.63
2023-01-06T12:13:28.618Z,101011.59
2023-01-06T12:16:05.283Z,101010.22
2023-01-06T12:18:39.453Z,101008.56
2023-01-06T12:21:07.704Z,101018.31
2023-01-06T12:23:38.863Z,101013.94
2023-01-06T12:26:15.067Z,101018.03
2023-01-06T12:28:46.731Z,101023.31
2023-01-06T12:31:22.385Z,101021.00
2023-01-06T12:33:56.813Z,101019.69
2023-01-06T12:36:33.250Z,101022.16
2023-01-06T12:39:05.091Z,101012.94
2023-01-06T12:41:38.874Z,101021.19
2023-01-06T12:44:17.840Z,101030.09
2023-01-06T12:46:56.746Z,101029.00
2023-01-06T12:49:32.902Z,101024.22
2023-01-06T12:52:05.439Z,101033.19
2023-01-06T12:54:35.658Z,101041.53
2023-01-06T12:57:17.627Z,101027.41
2023-01-06T12:59:59.294Z,101037.47
2023-01-06T13:02:54.907Z,101042.59
2023-01-06T13:05:37.795Z,101039.22
2023-01-06T13:08:19.673Z,101047.97
2023-01-06T13:10:54.254Z,101049.94
2023-01-06T13:13:37.358Z,101046.78
2023-01-06T13:16:15.884Z,101049.56
2023-01-06T13:18:59.768Z,101055.97
2023-01-06T13:21:28.915Z,101055.81
2023-01-06T13:24:09.537Z,101056.31
2023-01-06T13:26:47.320Z,101060.94
2023-01-06T13:29:28.117Z,101069.06
2023-01-06T13:32:18.820Z,101062.94
2023-01-06T13:35:19.335Z,101069.66
2023-01-06T13:37:57.405Z,101078.69
2023-01-06T13:40:29.656Z,101077.38
2023-01-06T13:43:02.695Z,101085.09
2023-01-06T13:45:34.504Z,101074.66
2023-01-06T13:48:08.241Z,101081.53
2023-01-06T13:50:38.909Z,101093.59
2023-01-06T13:53:08.361Z,101090.94
2023-01-06T13:55:38.973Z,101091.47
2023-01-06T13:58:37.484Z,101101.41
2023-01-06T14:01:10.352Z,101097.91
2023-01-06T14:03:40.054Z,101109.34
2023-01-06T14:06:12.275Z,101115.84
2023-01-06T14:08:49.681Z,101124.78
2023-01-06T14:11:28.752Z,101118.97
2023-01-06T14:13:58.970Z,101114.50
2023-01-06T14:16:42.040Z,101113.41
2023-01-06T14:19:17.526Z,101117.94
2023-01-06T14:21:48.440Z,101123.78
2023-01-06T14:24:24.091Z,101133.22
2023-01-06T14:26:55.836Z,101130.88
2023-01-06T14:29:46.686Z,101140.28
2023-01-06T14:32:48.035Z,101135.47
2023-01-06T14:35:18.916Z,101143.38
2023-01-06T14:37:52.125Z,101135.00
2023-01-06T14:40:23.919Z,101147.19
2023-01-06T14:42:52.666Z,101149.69
2023-01-06T14:45:24.390Z,101147.44
2023-01-06T14:47:55.504Z,101147.63
2023-01-06T14:50:31.915Z,101148.41
2023-01-06T14:53:08.878Z,101145.50
2023-01-06T14:55:41.871Z,101152.81
2023-01-06T14:58:28.775Z,101160.41
2023-01-06T15:00:57.081Z,101160.03
2023-01-06T15:03:26.145Z,101163.94
2023-01-06T15:06:11.055Z,101172.59
2023-01-06T15:08:40.444Z,101175.00
2023-01-06T15:11:25.310Z,101177.75
2023-01-06T15:13:53.407Z,101169.84
2023-01-06T15:16:29.590Z,101185.19
2023-01-06T15:18:57.690Z,101179.91
2023-01-06T15:21:26.151Z,101185.13
2023-01-06T15:23:56.230Z,101187.31
2023-01-06T15:26:27.669Z,101186.84
2023-01-06T15:29:03.501Z,101190.84
2023-01-06T15:31:33.943Z,101195.06
2023-01-06T15:34:04.503Z,101204.56
2023-01-06T15:36:33.728Z,101207.75
2023-01-06T15:39:05.774Z,101207.66
2023-01-06T15:41:36.747Z,101215.47
2023-01-06T15:44:22.385Z,101218.38
2023-01-06T15:46:52.158Z,101227.94
2023-01-06T15:49:27.165Z,101223.66
2023-01-06T15:51:58.505Z,101226.97
2023-01-06T15:54:31.293Z,101235.28
2023-01-06T15:57:15.217Z,101235.06
2023-01-06T15:59:53.343Z,101185.72
2023-01-06T16:02:24.753Z,101233.81
2023-01-06T16:04:52.901Z,101243.84
2023-01-06T16:07:34.228Z,101243.25
2023-01-06T16:10:04.064Z,101259.53
2023-01-06T16:12:31.993Z,101246.19
2023-01-06T16:14:59.899Z,101231.13
2023-01-06T16:17:31.731Z,101252.00
2023-01-06T16:20:02.268Z,101257.41
2023-01-06T16:22:36.271Z,101236.69
2023-01-06T16:25:08.204Z,101262.25
2023-01-06T16:27:36.431Z,101262.94
2023-01-06T16:30:21.855Z,101263.69
2023-01-06T16:32:52.565Z,101260.00
2023-01-06T16:35:22.724Z,101264.13
2023-01-06T16:37:51.209Z,101266.94
2023-01-06T16:40:23.193Z,101279.19
2023-01-06T16:42:57.187Z,101274.63
2023-01-06T16:45:33.761Z,101273.16
2023-01-06T16:48:01.932Z,101280.50
2023-01-06T16:50:35.321Z,101274.63
2023-01-06T16:53:12.111Z,101278.91
2023-01-06T16:55:42.861Z,101284.47
2023-01-06T16:58:17.606Z,101277.91
2023-01-06T17:00:51.561Z,101283.81
2023-01-06T17:03:21.936Z,101286.47
2023-01-06T17:05:49.924Z,101294.28
2023-01-06T17:08:21.268Z,101298.03
2023-01-06T17:10:50.629Z,101274.41
2023-01-06T17:13:37.271Z,101309.78
2023-01-06T17:16:15.542Z,101312.94
2023-01-06T17:18:52.034Z,101315.72
2023-01-06T17:21:22.131Z,101317.97
2023-01-06T17:23:52.954Z,101316.19
2023-01-06T17:26:24.247Z,101325.88
2023-01-06T17:28:55.137Z,101314.06
2023-01-06T17:31:30.489Z,101333.00
2023-01-06T17:34:02.943Z,101335.63
2023-01-06T17:36:37.841Z,101330.25
2023-01-06T17:39:14.805Z,101344.28
2023-01-06T17:41:44.184Z,101353.56
2023-01-06T17:44:16.787Z,101356.56
2023-01-06T17:46:45.657Z,101370.75
2023-01-06T17:49:33.892Z,101381.53
2023-01-06T17:52:11.835Z,101397.75
2023-01-06T17:54:56.919Z,101394.78
2023-01-06T17:57:27.672Z,101390.56
2023-01-06T17:59:57.174Z,101386.91
2023-01-06T18:02:40.203Z,101399.91
2023-01-06T18:05:41.565Z,101406.97
2023-01-06T18:08:14.943Z,101418.66
2023-01-06T18:10:44.879Z,101421.72
2023-01-06T18:13:17.728Z,101414.09
2023-01-06T18:15:47.138Z,101412.22
2023-01-06T18:18:21.258Z,101414.16
2023-01-06T18:20:53.668Z,101410.88
2023-01-06T18:23:24.277Z,101402.91
2023-01-06T18:25:56.155Z,101401.28
2023-01-06T18:28:26.068Z,101411.75
2023-01-06T18:30:58.093Z,101417.72
2023-01-06T18:33:27.347Z,101421.09
2023-01-06T18:35:57.686Z,101412.91
2023-01-06T18:38:26.495Z,101398.44
2023-01-06T18:40:54.792Z,101412.28
2023-01-06T18:43:29.850Z,101410.72
2023-01-06T18:46:01.642Z,101414.81
2023-01-06T18:48:31.943Z,101420.91
2023-01-06T18:51:01.937Z,101420.28
2023-01-06T18:53:31.455Z,101418.13
2023-01-06T18:56:01.926Z,101420.34
2023-01-06T18:58:46.335Z,101406.59
2023-01-06T19:01:20.402Z,101405.16
2023-01-06T19:04:04.781Z,101415.16
2023-01-06T19:06:39.235Z,101416.97
2023-01-06T19:09:24.046Z,101416.06
2023-01-06T19:12:01.340Z,101421.97
2023-01-06T19:14:35.480Z,101416.81
2023-01-06T19:17:04.127Z,101417.47
2023-01-06T19:19:38.345Z,101413.28
2023-01-06T19:22:17.383Z,101406.19
2023-01-06T19:24:49.486Z,101402.94
2023-01-06T19:27:48.217Z,101422.56
2023-01-06T19:30:41.285Z,101417.34
2023-01-06T19:33:29.608Z,101411.25
2023-01-06T19:36:07.818Z,101416.31
2023-01-06T19:38:38.173Z,101418.00
2023-01-06T19:41:15.755Z,101419.78
2023-01-06T19:43:44.105Z,101419.97
2023-01-06T19:46:19.958Z,101426.06
2023-01-06T19:48:47.947Z,101429.44
2023-01-06T19:51:30.155Z,101424.44
2023-01-06T19:54:00.966Z,101417.66
2023-01-06T19:56:33.371Z,101434.09
2023-01-06T19:59:04.044Z,101422.44
2023-01-06T20:01:34.125Z,101432.75
2023-01-06T20:04:02.537Z,101433.75
2023-01-06T20:06:30.500Z,101434.66
2023-01-06T20:08:58.429Z,101441.66
2023-01-06T20:11:26.355Z,101436.44
2023-01-06T20:13:54.280Z,101431.63
2023-01-06T20:16:22.263Z,101438.22
2023-01-06T20:18:51.798Z,101433.63
2023-01-06T20:21:19.753Z,101434.09
2023-01-06T20:23:47.709Z,101438.38
2023-01-06T20:26:15.670Z,101433.09
2023-01-06T20:28:43.631Z,101439.09
2023-01-06T20:31:11.622Z,101447.84
2023-01-06T20:33:39.540Z,101435.41
2023-01-06T20:36:09.516Z,101448.28
2023-01-06T20:38:37.494Z,101444.09
2023-01-06T20:41:05.633Z,101447.81
2023-01-06T20:43:33.622Z,101449.31
2023-01-06T20:46:01.660Z,101444.78
2023-01-06T20:48:29.642Z,101438.09
2023-01-06T20:50:57.587Z,101445.56
2023-01-06T20:53:26.973Z,101447.06
2023-01-06T20:55:54.958Z,101445.38
2023-01-06T20:58:22.941Z,101448.25
2023-01-06T21:00:50.924Z,101448.09
2023-01-06T21:03:18.897Z,101452.38
2023-01-06T21:05:46.798Z,101455.06
2023-01-06T21:08:14.861Z,101453.41
2023-01-06T21:10:44.159Z,101456.91
2023-01-06T21:13:12.115Z,101458.56
2023-01-06T21:15:40.067Z,101456.09
2023-01-06T21:18:08.004Z,101456.09
2023-01-06T21:20:35.938Z,101462.09
2023-01-06T21:23:03.860Z,101463.88
2023-01-06T21:25:31.802Z,101470.06
2023-01-06T21:28:01.134Z,101470.41
2023-01-06T21:30:31.813Z,101471.44
2023-01-06T21:33:00.607Z,101471.56
2023-01-06T21:35:28.599Z,101474.28
2023-01-06T21:37:56.521Z,101464.06
2023-01-06T21:40:24.465Z,101464.94
2023-01-06T21:43:09.660Z,101429.47
2023-01-06T21:45:40.254Z,101458.41
2023-01-06T21:48:09.426Z,101456.06
2023-01-06T21:50:40.714Z,101469.13
2023-01-06T21:53:09.864Z,101476.09
2023-01-06T21:55:38.193Z,101463.78
2023-01-06T21:58:06.497Z,101464.59
2023-01-06T22:00:34.411Z,101470.31
2023-01-06T22:03:03.815Z,101470.13
2023-01-06T22:05:31.837Z,101464.28
2023-01-06T22:07:59.781Z,101467.16
2023-01-06T22:10:28.852Z,101471.34
2023-01-06T22:12:59.309Z,101478.91
2023-01-06T22:15:28.343Z,101486.66
2023-01-06T22:17:58.429Z,101488.63
2023-01-06T22:20:29.100Z,101494.69
2023-01-06T22:22:57.112Z,101497.16
2023-01-06T22:25:25.368Z,101480.56
2023-01-06T22:27:53.284Z,101462.41
2023-01-06T22:30:21.265Z,101470.16
2023-01-06T22:32:50.117Z,101471.56
2023-01-06T22:35:18.798Z,101469.97
2023-01-06T22:37:48.224Z,101455.41
2023-01-06T22:40:16.513Z,101456.81
2023-01-06T22:42:44.911Z,101457.25
2023-01-06T22:45:13.722Z,101456.19
2023-01-06T22:47:41.710Z,101442.31
2023-01-06T22:50:10.465Z,101458.47
2023-01-06T22:52:38.450Z,101471.56
2023-01-06T22:55:09.439Z,101463.22
2023-01-06T22:57:37.431Z,101467.28
2023-01-06T23:00:12.410Z,101463.69
2023-01-06T23:02:40.506Z,101467.84
2023-01-06T23:05:09.021Z,101467.91
2023-01-06T23:07:38.975Z,101468.00
2023-01-06T23:10:10.233Z,101465.16
2023-01-06T23:12:39.076Z,101472.84
2023-01-06T23:15:08.683Z,101471.22
2023-01-06T23:17:37.727Z,101479.78
2023-01-06T23:20:06.812Z,101481.06
2023-01-06T23:22:34.772Z,101471.78
2023-01-06T23:25:02.817Z,101481.19
2023-01-06T23:27:32.135Z,101483.66
2023-01-06T23:30:00.322Z,101480.09
2023-01-06T23:32:28.278Z,101478.31
2023-01-06T23:34:56.217Z,101471.44
2023-01-06T23:37:24.180Z,101481.84
2023-01-06T23:39:53.367Z,101477.75
2023-01-06T23:42:21.350Z,101477.50
2023-01-06T23:44:50.665Z,101475.19
2023-01-06T23:47:18.658Z,101478.56
2023-01-06T23:49:48.841Z,101474.88
2023-01-06T23:52:16.818Z,101493.56
2023-01-06T23:54:44.748Z,101499.56
2023-01-06T23:57:12.722Z,101496.22
2023-01-06T23:59:40.631Z,101492.22
